createdAt,value
2022-11-18T00:00:56.241Z,19.35
2022-11-18T00:03:23.051Z,18.55
2022-11-18T00:05:56.794Z,16.90
2022-11-18T00:08:24.832Z,18.27
2022-11-18T00:10:51.577Z,18.42
2022-11-18T00:13:37.435Z,17.85
2022-11-18T00:16:12.970Z,16.58
2022-11-18T00:18:39.748Z,19.92
2022-11-18T00:21:09.132Z,17.67
2022-11-18T00:23:35.996Z,16.33
2022-11-18T00:26:08.649Z,17.92
2022-11-18T00:28:35.216Z,20.70
2022-11-18T00:31:06.956Z,16.00
2022-11-18T00:33:33.608Z,15.05
2022-11-18T00:36:00.183Z,16.15
2022-11-18T00:38:27.039Z,15.95
2022-11-18T00:41:01.493Z,18.42
2022-11-18T00:43:28.146Z,15.23
2022-11-18T00:45:54.591Z,13.05
2022-11-18T00:48:22.186Z,7.57
2022-11-18T00:50:50.018Z,16.10
2022-11-18T00:53:17.664Z,20.77
2022-11-18T00:55:44.462Z,20.13
2022-11-18T00:58:14.215Z,7.75
2022-11-18T01:00:46.282Z,17.15
2022-11-18T01:03:12.985Z,15.10
2022-11-18T01:05:39.937Z,11.10
2022-11-18T01:08:08.487Z,18.15
2022-11-18T01:10:35.506Z,19.10
2022-11-18T01:13:20.058Z,17.02
2022-11-18T01:15:55.171Z,18.88
2022-11-18T01:18:24.924Z,21.40
2022-11-18T01:20:52.214Z,14.55
2022-11-18T01:23:20.248Z,17.90
2022-11-18T01:25:49.236Z,20.52
2022-11-18T01:28:21.983Z,20.65
2022-11-18T01:30:49.949Z,21.65
2022-11-18T01:33:16.502Z,9.00
2022-11-18T01:35:44.282Z,17.27
2022-11-18T01:38:12.491Z,16.17
2022-11-18T01:40:39.193Z,17.55
2022-11-18T01:43:20.748Z,14.60
2022-11-18T01:45:49.576Z,19.23
2022-11-18T01:48:20.874Z,21.63
2022-11-18T01:51:02.425Z,11.80
2022-11-18T01:53:36.105Z,23.75
2022-11-18T01:56:08.175Z,23.23
2022-11-18T01:58:39.201Z,19.40
2022-11-18T02:01:07.505Z,22.05
2022-11-18T02:03:34.926Z,15.85
2022-11-18T02:06:03.395Z,16.48
2022-11-18T02:08:30.788Z,17.25
2022-11-18T02:10:57.359Z,17.98
2022-11-18T02:13:24.334Z,16.85
2022-11-18T02:16:10.217Z,21.25
2022-11-18T02:18:50.601Z,21.70
2022-11-18T02:21:38.874Z,18.13
2022-11-18T02:24:41.249Z,21.55
2022-11-18T02:27:45.361Z,8.90
2022-11-18T02:30:15.785Z,11.05
2022-11-18T02:32:49.269Z,12.15
2022-11-18T02:35:24.571Z,18.92
2022-11-18T02:37:58.926Z,20.10
2022-11-18T02:40:36.663Z,15.35
2022-11-18T02:43:11.565Z,19.60
2022-11-18T02:45:41.795Z,11.48
2022-11-18T02:48:11.475Z,18.77
2022-11-18T02:50:41.970Z,20.67
2022-11-18T02:53:13.516Z,11.02
2022-11-18T02:58:08.998Z,8.02
2022-11-18T03:00:36.211Z,22.17
2022-11-18T03:03:25.086Z,18.58
2022-11-18T03:06:04.329Z,15.90
2022-11-18T03:08:34.080Z,10.20
2022-11-18T03:11:12.908Z,17.67
2022-11-18T03:14:01.466Z,13.30
2022-11-18T03:16:36.425Z,18.85
2022-11-18T03:19:18.832Z,7.90
2022-11-18T03:22:03.167Z,10.52
2022-11-18T03:24:33.478Z,18.50
2022-11-18T03:27:13.840Z,9.63
2022-11-18T03:29:48.389Z,15.63
2022-11-18T03:32:24.104Z,18.75
2022-11-18T03:34:57.362Z,22.58
2022-11-18T03:37:26.230Z,19.42
2022-11-18T03:39:56.659Z,17.17
2022-11-18T03:42:31.354Z,21.38
2022-11-18T03:45:03.609Z,21.48
2022-11-18T03:47:35.841Z,23.83
2022-11-18T03:50:12.724Z,23.95
2022-11-18T03:52:40.404Z,23.98
2022-11-18T03:55:14.322Z,22.77
2022-11-18T03:57:55.695Z,25.88
2022-11-18T04:00:22.678Z,21.52
2022-11-18T04:02:50.450Z,24.70
2022-11-18T04:05:19.242Z,18.58
2022-11-18T04:07:59.717Z,20.15
2022-11-18T04:10:32.625Z,23.05
2022-11-18T04:13:10.066Z,13.65
2022-11-18T04:15:38.088Z,20.38
2022-11-18T04:18:04.710Z,18.55
2022-11-18T04:20:32.375Z,18.90
2022-11-18T04:22:58.792Z,22.00
2022-11-18T04:25:25.510Z,14.25
2022-11-18T04:27:52.291Z,18.63
2022-11-18T04:30:19.700Z,18.60
2022-11-18T04:32:46.289Z,18.85
2022-11-18T04:35:13.273Z,15.70
2022-11-18T04:37:39.696Z,11.90
2022-11-18T04:40:06.789Z,13.80
2022-11-18T04:42:33.224Z,13.73
2022-11-18T04:44:59.742Z,19.98
2022-11-18T04:47:26.395Z,15.60
2022-11-18T04:49:52.854Z,16.73
2022-11-18T04:52:19.321Z,18.00
2022-11-18T04:54:46.646Z,16.00
2022-11-18T04:57:13.333Z,18.90
2022-11-18T04:59:40.068Z,21.02
2022-11-18T05:02:06.618Z,21.77
2022-11-18T05:04:34.641Z,14.85
2022-11-18T05:07:03.400Z,13.18
2022-11-18T05:09:31.962Z,15.30
2022-11-18T05:12:17.932Z,21.45
2022-11-18T05:14:49.712Z,20.83
2022-11-18T05:17:18.189Z,21.25
2022-11-18T05:19:44.644Z,22.70
2022-11-18T05:22:11.117Z,21.27
2022-11-18T05:24:37.566Z,23.40
2022-11-18T05:27:04.010Z,19.20
2022-11-18T05:29:30.503Z,20.13
2022-11-18T05:31:56.950Z,15.43
2022-11-18T05:34:23.452Z,14.50
2022-11-18T05:36:49.874Z,20.85
2022-11-18T05:39:16.690Z,20.17
2022-11-18T05:42:01.651Z,18.05
2022-11-18T05:44:28.111Z,22.27
2022-11-18T05:46:55.200Z,21.05
2022-11-18T05:49:21.707Z,21.67
2022-11-18T05:51:48.170Z,20.35
2022-11-18T05:54:17.760Z,18.08
2022-11-18T05:56:45.500Z,20.27
2022-11-18T05:59:13.841Z,18.23
2022-11-18T06:01:51.687Z,22.00
2022-11-18T06:04:37.339Z,20.83
2022-11-18T06:07:38.134Z,19.40
2022-11-18T06:10:06.264Z,21.08
2022-11-18T06:12:38.776Z,18.20
2022-11-18T06:15:13.031Z,20.35
2022-11-18T06:18:08.789Z,23.45
2022-11-18T06:20:38.085Z,17.73
2022-11-18T06:23:04.764Z,23.25
2022-11-18T06:25:32.483Z,18.98
2022-11-18T06:28:02.178Z,19.52
2022-11-18T06:30:28.647Z,14.55
2022-11-18T06:32:55.062Z,18.30
2022-11-18T06:35:21.508Z,16.50
2022-11-18T06:37:48.090Z,19.63
2022-11-18T06:40:14.557Z,19.90
2022-11-18T06:42:59.389Z,18.50
2022-11-18T06:45:25.935Z,20.50
2022-11-18T06:47:56.939Z,18.02
2022-11-18T06:50:23.543Z,18.38
2022-11-18T06:52:49.957Z,16.10
2022-11-18T06:55:16.519Z,15.32
2022-11-18T06:57:43.000Z,15.23
2022-11-18T07:00:10.061Z,12.45
2022-11-18T07:02:36.897Z,14.15
2022-11-18T07:05:04.801Z,16.20
2022-11-18T07:07:31.391Z,14.88
2022-11-18T07:09:57.862Z,14.15
2022-11-18T07:12:24.292Z,16.33
2022-11-18T07:14:50.719Z,15.10
2022-11-18T07:17:17.141Z,15.05
2022-11-18T07:19:43.582Z,15.32
2022-11-18T07:22:10.021Z,13.13
2022-11-18T07:24:37.894Z,13.90
2022-11-18T07:27:04.378Z,15.30
2022-11-18T07:29:30.814Z,14.43
2022-11-18T07:31:57.262Z,15.52
2022-11-18T07:34:23.711Z,19.05
2022-11-18T07:36:50.141Z,13.07
2022-11-18T07:39:16.859Z,15.48
2022-11-18T07:41:43.528Z,12.93
2022-11-18T07:44:13.310Z,16.17
2022-11-18T07:46:39.729Z,16.63
2022-11-18T07:49:08.888Z,16.88
2022-11-18T07:51:38.115Z,15.15
2022-11-18T07:54:09.249Z,18.00
2022-11-18T07:56:35.666Z,15.93
2022-11-18T07:59:02.106Z,17.98
2022-11-18T08:01:29.729Z,15.52
2022-11-18T08:03:58.108Z,17.42
2022-11-18T08:06:24.644Z,15.07
2022-11-18T08:08:51.147Z,15.50
2022-11-18T08:11:22.709Z,16.52
2022-11-18T08:13:50.225Z,13.55
2022-11-18T08:16:19.744Z,16.50
2022-11-18T08:18:47.014Z,14.75
2022-11-18T08:21:14.790Z,13.82
2022-11-18T08:23:42.608Z,13.55
2022-11-18T08:26:10.543Z,13.07
2022-11-18T08:28:37.077Z,15.45
2022-11-18T08:31:21.800Z,16.42
2022-11-18T08:33:48.269Z,10.50
2022-11-18T08:36:17.509Z,16.55
2022-11-18T08:38:44.340Z,14.32
2022-11-18T08:41:21.382Z,14.73
2022-11-18T08:43:47.811Z,18.55
2022-11-18T08:46:14.316Z,12.60
2022-11-18T08:48:40.758Z,13.07
2022-11-18T08:51:11.289Z,12.85
2022-11-18T08:53:37.805Z,17.60
2022-11-18T08:56:04.376Z,21.33
2022-11-18T08:58:31.422Z,16.35
2022-11-18T09:00:57.836Z,19.25
2022-11-18T09:03:24.823Z,18.45
2022-11-18T09:05:51.264Z,17.08
2022-11-18T09:08:17.713Z,15.75
2022-11-18T09:10:44.170Z,14.00
2022-11-18T09:13:47.809Z,16.42
2022-11-18T09:16:01.911Z,18.83
2022-11-18T09:18:29.219Z,17.33
2022-11-18T09:21:04.829Z,21.17
2022-11-18T09:23:33.171Z,21.20
2022-11-18T09:26:08.017Z,23.40
2022-11-18T09:28:35.300Z,16.88
2022-11-18T09:31:07.935Z,20.13
2022-11-18T09:33:35.220Z,21.65
2022-11-18T09:36:01.890Z,22.65
2022-11-18T09:38:32.382Z,21.85
2022-11-18T09:41:06.024Z,24.55
2022-11-18T09:43:53.435Z,20.83
2022-11-18T09:46:47.467Z,17.67
2022-11-18T09:49:34.099Z,27.98
2022-11-18T09:52:23.875Z,32.60
2022-11-18T09:54:50.725Z,20.25
2022-11-18T09:57:20.726Z,16.15
2022-11-18T09:59:47.307Z,28.27
2022-11-18T10:02:13.809Z,31.35
2022-11-18T10:04:40.325Z,27.55
2022-11-18T10:07:21.822Z,28.08
2022-11-18T10:09:54.054Z,30.30
2022-11-18T10:12:35.473Z,27.63
2022-11-18T10:15:19.597Z,20.13
2022-11-18T10:18:07.778Z,25.33
2022-11-18T10:21:00.879Z,26.13
2022-11-18T10:23:50.642Z,23.20
2022-11-18T10:26:32.366Z,21.67
2022-11-18T10:28:58.895Z,22.30
2022-11-18T10:31:25.337Z,17.80
2022-11-18T10:34:00.296Z,23.85
2022-11-18T10:36:34.078Z,20.50
2022-11-18T10:39:09.375Z,22.88
2022-11-18T10:41:43.163Z,19.33
2022-11-18T10:44:32.570Z,18.50
2022-11-18T10:47:20.926Z,17.08
2022-11-18T10:49:47.359Z,16.98
2022-11-18T10:52:15.249Z,14.40
2022-11-18T10:54:42.644Z,15.68
2022-11-18T10:57:21.622Z,16.20
2022-11-18T10:59:56.897Z,16.35
2022-11-18T11:02:26.538Z,15.98
2022-11-18T11:04:53.706Z,17.33
2022-11-18T11:07:32.790Z,16.17
2022-11-18T11:10:12.605Z,17.98
2022-11-18T11:12:47.097Z,15.43
2022-11-18T11:15:19.195Z,19.13
2022-11-18T11:18:12.175Z,16.20
2022-11-18T11:20:38.895Z,17.80
2022-11-18T11:23:17.716Z,17.17
2022-11-18T11:29:02.906Z,17.05
2022-11-18T11:31:56.956Z,18.83
2022-11-18T11:34:51.943Z,20.75
2022-11-18T11:37:29.050Z,21.98
2022-11-18T11:40:21.498Z,22.75
2022-11-18T11:43:02.375Z,18.27
2022-11-18T11:46:07.474Z,20.95
2022-11-18T11:48:41.731Z,21.88
2022-11-18T11:51:20.691Z,22.52
2022-11-18T11:53:53.148Z,21.52
2022-11-18T11:56:38.144Z,24.50
2022-11-18T11:59:24.870Z,23.05
2022-11-18T12:02:12.990Z,21.48
2022-11-18T12:04:42.339Z,21.60
2022-11-18T12:07:16.794Z,20.48
2022-11-18T12:10:25.095Z,22.83
2022-11-18T12:13:02.065Z,25.45
2022-11-18T12:15:55.878Z,25.27
2022-11-18T12:18:41.394Z,24.48
2022-11-18T12:21:07.863Z,21.55
2022-11-18T12:23:34.402Z,21.98
2022-11-18T12:26:06.484Z,20.95
2022-11-18T12:28:43.075Z,23.58
2022-11-18T12:31:15.613Z,18.75
2022-11-18T12:33:52.471Z,20.35
2022-11-18T12:36:45.094Z,18.55
2022-11-18T12:39:23.939Z,21.08
2022-11-18T12:42:08.847Z,26.75
2022-11-18T12:44:37.234Z,25.95
2022-11-18T12:47:04.551Z,24.20
2022-11-18T12:49:30.919Z,27.75
2022-11-18T12:51:59.581Z,26.80
2022-11-18T12:54:31.297Z,28.02
2022-11-18T12:59:30.761Z,25.25
2022-11-18T13:02:25.104Z,33.70
2022-11-18T13:05:08.593Z,28.77
2022-11-18T13:08:02.343Z,34.78
2022-11-18T13:10:32.780Z,28.63
2022-11-18T13:12:59.853Z,29.42
2022-11-18T13:15:45.186Z,32.72
2022-11-18T13:18:17.284Z,32.33
2022-11-18T13:20:53.779Z,28.52
2022-11-18T13:23:49.862Z,28.55
2022-11-18T13:26:32.818Z,29.65
2022-11-18T13:29:26.652Z,27.08
2022-11-18T13:32:15.154Z,29.40
2022-11-18T13:34:50.609Z,29.83
2022-11-18T13:37:28.939Z,31.02
2022-11-18T13:39:55.947Z,30.92
2022-11-18T13:42:27.545Z,34.58
2022-11-18T13:44:57.449Z,34.40
2022-11-18T13:47:31.368Z,28.05
2022-11-18T13:50:11.511Z,33.17
2022-11-18T13:52:51.400Z,31.73
2022-11-18T13:55:26.019Z,27.30
2022-11-18T13:58:06.265Z,26.20
2022-11-18T14:00:35.727Z,29.25
2022-11-18T14:03:28.794Z,28.23
2022-11-18T14:05:56.884Z,28.38
2022-11-18T14:08:31.760Z,24.02
2022-11-18T14:10:58.967Z,24.40
2022-11-18T14:13:33.092Z,33.53
2022-11-18T14:16:02.272Z,30.08
2022-11-18T14:18:32.779Z,20.65
2022-11-18T14:21:00.616Z,29.05
2022-11-18T14:23:36.134Z,29.80
2022-11-18T14:26:07.235Z,27.08
2022-11-18T14:28:37.113Z,31.13
2022-11-18T14:31:12.372Z,25.77
2022-11-18T14:33:39.358Z,29.90
2022-11-18T14:36:15.347Z,32.90
2022-11-18T14:39:11.317Z,32.67
2022-11-18T14:41:48.763Z,29.33
2022-11-18T14:44:16.035Z,28.38
2022-11-18T14:46:46.197Z,30.38
2022-11-18T14:49:15.403Z,28.10
2022-11-18T14:51:42.133Z,26.08
2022-11-18T14:54:12.819Z,22.63
2022-11-18T14:56:39.622Z,22.65
2022-11-18T14:59:06.111Z,29.48
2022-11-18T15:01:32.584Z,24.23
2022-11-18T15:03:59.064Z,25.88
2022-11-18T15:06:25.646Z,29.17
2022-11-18T15:08:55.516Z,23.30
2022-11-18T15:11:22.029Z,30.58
2022-11-18T15:13:48.823Z,29.95
2022-11-18T15:16:21.150Z,20.23
2022-11-18T15:18:50.405Z,26.40
2022-11-18T15:21:17.712Z,22.60
2022-11-18T15:23:44.851Z,30.45
2022-11-18T15:26:19.353Z,22.73
2022-11-18T15:28:47.594Z,23.90
2022-11-18T15:31:14.714Z,27.73
2022-11-18T15:33:41.592Z,30.73
2022-11-18T15:36:19.466Z,20.77
2022-11-18T15:38:46.365Z,29.27
2022-11-18T15:41:23.670Z,25.45
2022-11-18T15:43:50.955Z,28.27
2022-11-18T15:46:19.399Z,26.83
2022-11-18T15:48:46.851Z,23.75
2022-11-18T15:51:13.829Z,29.30
2022-11-18T15:53:40.304Z,35.25
2022-11-18T15:56:18.711Z,34.17
2022-11-18T15:59:02.429Z,33.22
2022-11-18T16:01:31.120Z,34.95
2022-11-18T16:03:57.852Z,35.60
2022-11-18T16:06:25.367Z,31.92
2022-11-18T16:08:57.520Z,30.25
2022-11-18T16:11:44.668Z,34.08
2022-11-18T16:14:13.541Z,31.38
2022-11-18T16:16:42.982Z,32.63
2022-11-18T16:19:12.634Z,33.22
2022-11-18T16:21:41.319Z,34.47
2022-11-18T16:24:11.049Z,28.23
2022-11-18T16:26:37.979Z,29.33
2022-11-18T16:29:05.995Z,34.90
2022-11-18T16:31:41.853Z,29.08
2022-11-18T16:34:14.597Z,32.70
2022-11-18T16:36:42.864Z,30.38
2022-11-18T16:39:23.995Z,30.85
2022-11-18T16:41:51.944Z,26.27
2022-11-18T16:44:18.586Z,31.55
2022-11-18T16:46:50.290Z,31.52
2022-11-18T16:49:19.496Z,29.55
2022-11-18T16:51:48.001Z,28.20
2022-11-18T16:54:26.206Z,28.38
2022-11-18T16:56:54.862Z,25.25
2022-11-18T16:59:26.438Z,25.13
2022-11-18T17:01:54.545Z,28.00
2022-11-18T17:04:21.725Z,25.25
2022-11-18T17:06:48.505Z,27.15
2022-11-18T17:09:18.159Z,26.63
2022-11-18T17:11:45.027Z,29.85
2022-11-18T17:14:12.299Z,23.13
2022-11-18T17:16:39.294Z,26.60
2022-11-18T17:19:11.698Z,24.95
2022-11-18T17:21:38.756Z,25.60
2022-11-18T17:24:05.725Z,23.15
2022-11-18T17:26:32.137Z,20.50
2022-11-18T17:28:58.572Z,21.33
2022-11-18T17:31:25.576Z,18.40
2022-11-18T17:33:53.783Z,19.02
2022-11-18T17:36:23.244Z,20.23
2022-11-18T17:38:51.582Z,19.80
2022-11-18T17:41:38.642Z,22.13
2022-11-18T17:44:07.398Z,18.15
2022-11-18T17:46:38.027Z,17.98
2022-11-18T17:49:15.687Z,16.33
2022-11-18T17:51:42.475Z,18.77
2022-11-18T17:54:10.202Z,19.65
2022-11-18T17:56:36.780Z,15.27
2022-11-18T17:59:03.423Z,14.10
2022-11-18T18:01:29.999Z,16.65
2022-11-18T18:03:56.657Z,16.63
2022-11-18T18:06:23.269Z,15.88
2022-11-18T18:08:49.882Z,16.05
2022-11-18T18:11:18.571Z,15.02
2022-11-18T18:14:03.818Z,14.57
2022-11-18T18:16:31.945Z,17.10
2022-11-18T18:18:59.638Z,16.38
2022-11-18T18:21:26.761Z,16.67
2022-11-18T18:23:53.252Z,15.77
2022-11-18T18:26:19.946Z,17.38
2022-11-18T18:28:47.181Z,13.93
2022-11-18T18:31:15.406Z,14.98
2022-11-18T18:33:45.065Z,14.40
2022-11-18T18:36:14.552Z,13.05
2022-11-18T18:38:42.168Z,14.20
2022-11-18T18:41:18.119Z,14.52
2022-11-18T18:43:45.993Z,12.15
2022-11-18T18:46:30.896Z,12.10
2022-11-18T18:49:20.476Z,12.90
2022-11-18T18:51:50.555Z,11.88
2022-11-18T18:54:19.251Z,11.48
2022-11-18T18:56:46.157Z,12.38
2022-11-18T18:59:12.666Z,10.90
2022-11-18T19:01:39.396Z,12.95
2022-11-18T19:04:07.502Z,10.77
2022-11-18T19:09:23.200Z,11.73
2022-11-18T19:12:09.443Z,10.55
2022-11-18T19:14:35.937Z,10.77
2022-11-18T19:17:09.456Z,9.93
2022-11-18T19:19:55.573Z,8.70
2022-11-18T19:22:22.146Z,12.85
2022-11-18T19:24:50.466Z,8.85
2022-11-18T19:27:18.694Z,9.52
2022-11-18T19:29:45.296Z,10.68
2022-11-18T19:32:11.781Z,13.35
2022-11-18T19:34:38.294Z,10.32
2022-11-18T19:37:04.778Z,9.70
2022-11-18T19:39:31.333Z,9.90
2022-11-18T19:41:57.813Z,8.90
2022-11-18T19:44:24.270Z,8.57
2022-11-18T19:46:50.737Z,8.60
2022-11-18T19:49:17.502Z,9.70
2022-11-18T19:51:44.072Z,9.10
2022-11-18T19:54:10.530Z,8.55
2022-11-18T19:56:36.960Z,8.93
2022-11-18T19:59:03.418Z,44.63
2022-11-18T20:01:30.082Z,14.10
2022-11-18T20:03:58.676Z,10.88
2022-11-18T20:06:26.528Z,11.15
2022-11-18T20:08:53.979Z,10.90
2022-11-18T20:11:21.228Z,11.40
2022-11-18T20:13:48.007Z,9.30
2022-11-18T20:16:19.219Z,12.43
2022-11-18T20:18:50.262Z,10.95
2022-11-18T20:21:21.673Z,11.13
2022-11-18T20:23:49.959Z,10.65
2022-11-18T20:26:18.837Z,10.00
2022-11-18T20:28:46.894Z,12.00
2022-11-18T20:31:15.776Z,9.48
2022-11-18T20:33:48.417Z,10.77
2022-11-18T20:36:22.244Z,12.02
2022-11-18T20:38:51.247Z,13.13
2022-11-18T20:41:18.522Z,10.20
2022-11-18T20:43:45.494Z,9.52
2022-11-18T20:46:14.693Z,10.25
2022-11-18T20:48:45.446Z,12.05
2022-11-18T20:51:14.163Z,11.63
2022-11-18T20:53:42.374Z,11.45
2022-11-18T20:56:10.228Z,11.80
2022-11-18T20:58:36.723Z,8.90
2022-11-18T21:01:15.299Z,10.68
2022-11-18T21:03:43.398Z,10.05
2022-11-18T21:06:14.302Z,13.27
2022-11-18T21:08:42.039Z,11.63
2022-11-18T21:11:10.885Z,9.40
2022-11-18T21:13:56.666Z,10.13
2022-11-18T21:16:23.998Z,12.25
2022-11-18T21:18:50.637Z,11.23
2022-11-18T21:21:35.732Z,11.77
2022-11-18T21:24:03.024Z,20.67
2022-11-18T21:26:31.524Z,19.83
2022-11-18T21:29:00.173Z,13.57
2022-11-18T21:31:27.613Z,9.05
2022-11-18T21:33:54.496Z,9.68
2022-11-18T21:36:21.855Z,11.68
2022-11-18T21:38:48.338Z,10.80
2022-11-18T21:41:15.318Z,13.55
2022-11-18T21:46:29.291Z,12.20
2022-11-18T21:48:59.917Z,11.77
2022-11-18T21:51:27.154Z,10.32
2022-11-18T21:53:53.978Z,12.18
2022-11-18T21:56:25.199Z,12.57
2022-11-18T21:58:52.717Z,10.32
2022-11-18T22:01:24.278Z,11.57
2022-11-18T22:03:55.604Z,12.65
2022-11-18T22:06:24.533Z,12.98
2022-11-18T22:08:52.088Z,10.23
2022-11-18T22:11:20.535Z,11.98
2022-11-18T22:13:47.149Z,11.63
2022-11-18T22:16:18.466Z,12.10
2022-11-18T22:18:50.358Z,12.18
2022-11-18T22:21:21.102Z,12.77
2022-11-18T22:23:48.097Z,12.88
2022-11-18T22:26:17.049Z,12.70
2022-11-18T22:28:44.425Z,14.10
2022-11-18T22:31:12.708Z,16.58
2022-11-18T22:33:39.743Z,12.85
2022-11-18T22:36:08.815Z,11.13
2022-11-18T22:38:35.429Z,12.52
2022-11-18T22:41:04.530Z,9.43
2022-11-18T22:43:32.148Z,13.07
2022-11-18T22:46:03.444Z,11.15
2022-11-18T22:48:30.576Z,10.55
2022-11-18T22:51:02.467Z,11.57
2022-11-18T22:56:01.913Z,11.15
2022-11-18T22:58:29.065Z,13.00
2022-11-18T23:00:58.926Z,11.70
2022-11-18T23:03:25.349Z,9.88
2022-11-18T23:05:51.789Z,9.05
2022-11-18T23:08:18.293Z,10.40
2022-11-18T23:10:44.799Z,13.52
2022-11-18T23:13:30.026Z,12.88
2022-11-18T23:15:58.912Z,11.93
2022-11-18T23:18:26.123Z,10.88
2022-11-18T23:20:58.331Z,9.77
2022-11-18T23:23:24.766Z,10.90
2022-11-18T23:25:51.214Z,11.95
2022-11-18T23:28:17.678Z,12.10
2022-11-18T23:30:44.158Z,12.32
2022-11-18T23:33:10.670Z,12.40
2022-11-18T23:35:37.129Z,9.77
2022-11-18T23:38:03.555Z,12.32
2022-11-18T23:40:31.015Z,8.60
2022-11-18T23:42:57.429Z,9.43
2022-11-18T23:45:23.874Z,9.98
2022-11-18T23:47:50.300Z,8.52
2022-11-18T23:50:16.780Z,11.05
2022-11-18T23:52:43.206Z,10.43
2022-11-18T23:55:09.846Z,10.80
2022-11-18T23:57:36.288Z,8.60
